createdAt,value
2022-10-05T00:00:00.713Z,101475.47
2022-10-05T00:02:32.981Z,101473.72
2022-10-05T00:05:00.480Z,101474.72
2022-10-05T00:07:31.055Z,101468.91
2022-10-05T00:09:59.805Z,101473.16
2022-10-05T00:12:29.669Z,101464.44
2022-10-05T00:15:01.671Z,101457.44
2022-10-05T00:17:31.277Z,101440.25
2022-10-05T00:19:58.691Z,101450.72
2022-10-05T00:22:31.908Z,101466.28
2022-10-05T00:25:01.072Z,101464.44
2022-10-05T00:27:33.767Z,101458.47
2022-10-05T00:30:04.027Z,101472.19
2022-10-05T00:32:32.749Z,101476.00
2022-10-05T00:35:00.224Z,101471.16
2022-10-05T00:37:27.600Z,101466.66
2022-10-05T00:39:54.973Z,101469.28
2022-10-05T00:42:35.320Z,101470.97
2022-10-05T00:45:08.942Z,101464.31
2022-10-05T00:47:48.000Z,101452.63
2022-10-05T00:50:49.633Z,101441.88
2022-10-05T00:53:31.010Z,101446.16
2022-10-05T00:56:04.368Z,101445.13
2022-10-05T00:58:49.393Z,101439.63
2022-10-05T01:01:22.610Z,101427.44
2022-10-05T01:04:01.165Z,101436.81
2022-10-05T01:06:43.796Z,101429.75
2022-10-05T01:09:23.088Z,101428.63
2022-10-05T01:11:57.500Z,101430.09
2022-10-05T01:14:32.407Z,101431.38
2022-10-05T01:17:06.737Z,101431.31
2022-10-05T01:20:04.137Z,101436.03
2022-10-05T01:22:52.765Z,101425.56
2022-10-05T01:25:25.966Z,101416.59
2022-10-05T01:28:02.917Z,101402.22
2022-10-05T01:30:34.124Z,101410.75
2022-10-05T01:33:10.294Z,101414.00
2022-10-05T01:35:47.216Z,101424.13
2022-10-05T01:38:30.389Z,101416.53
2022-10-05T01:41:08.268Z,101425.81
2022-10-05T01:43:43.115Z,101409.59
2022-10-05T01:46:22.587Z,101420.16
2022-10-05T01:49:03.353Z,101420.97
2022-10-05T01:51:38.796Z,101415.47
2022-10-05T01:54:16.668Z,101418.78
2022-10-05T01:56:51.300Z,101418.97
2022-10-05T01:59:28.035Z,101416.47
2022-10-05T02:02:01.254Z,101433.28
2022-10-05T02:05:00.464Z,101437.31
2022-10-05T02:07:24.399Z,101430.31
2022-10-05T02:09:57.074Z,101436.34
2022-10-05T02:12:28.479Z,101437.34
2022-10-05T02:15:02.968Z,101438.91
2022-10-05T02:17:39.292Z,101429.59
2022-10-05T02:20:11.209Z,101437.16
2022-10-05T02:22:43.199Z,101438.22
2022-10-05T02:25:14.437Z,101432.88
2022-10-05T02:27:48.638Z,101430.88
2022-10-05T02:30:19.029Z,101431.25
2022-10-05T02:32:52.437Z,101438.66
2022-10-05T02:35:20.955Z,101431.81
2022-10-05T02:37:57.785Z,101438.06
2022-10-05T02:40:38.430Z,101431.06
2022-10-05T02:43:18.696Z,101438.03
2022-10-05T02:45:53.523Z,101428.59
2022-10-05T02:48:32.073Z,101419.09
2022-10-05T02:51:09.689Z,101427.72
2022-10-05T02:53:47.979Z,101426.03
2022-10-05T02:56:23.747Z,101433.59
2022-10-05T02:59:02.864Z,101420.56
2022-10-05T03:01:36.838Z,101413.72
2022-10-05T03:04:15.108Z,101420.56
2022-10-05T03:06:50.564Z,101414.66
2022-10-05T03:09:21.458Z,101405.19
2022-10-05T03:11:59.621Z,101412.19
2022-10-05T03:14:34.471Z,101411.28
2022-10-05T03:17:14.472Z,101409.38
2022-10-05T03:19:56.547Z,101401.78
2022-10-05T03:22:34.672Z,101407.88
2022-10-05T03:25:23.902Z,101406.13
2022-10-05T03:27:59.633Z,101403.56
2022-10-05T03:30:32.036Z,101403.34
2022-10-05T03:33:11.818Z,101391.22
2022-10-05T03:35:51.128Z,101384.22
2022-10-05T03:38:27.710Z,101375.13
2022-10-05T03:41:00.276Z,101375.22
2022-10-05T03:43:46.462Z,101379.13
2022-10-05T03:46:20.542Z,101386.41
2022-10-05T03:48:55.794Z,101374.88
2022-10-05T03:51:29.581Z,101375.81
2022-10-05T03:54:01.682Z,101371.88
2022-10-05T03:56:39.541Z,101364.19
2022-10-05T03:59:21.445Z,101369.25
2022-10-05T04:01:55.562Z,101349.53
2022-10-05T04:04:29.148Z,101364.06
2022-10-05T04:06:58.893Z,101358.88
2022-10-05T04:09:31.374Z,101357.56
2022-10-05T04:12:07.524Z,101363.34
2022-10-05T04:14:39.504Z,101363.53
2022-10-05T04:17:13.066Z,101355.00
2022-10-05T04:19:46.273Z,101354.00
2022-10-05T04:22:18.420Z,101355.78
2022-10-05T04:24:50.206Z,101354.31
2022-10-05T04:27:20.872Z,101363.50
2022-10-05T04:29:53.702Z,101361.56
2022-10-05T04:32:31.776Z,101353.31
2022-10-05T04:35:18.007Z,101358.44
2022-10-05T04:37:53.661Z,101355.78
2022-10-05T04:40:37.301Z,101360.56
2022-10-05T04:43:09.394Z,101369.69
2022-10-05T04:45:54.976Z,101367.06
2022-10-05T04:48:41.435Z,101373.63
2022-10-05T04:51:21.988Z,101367.09
2022-10-05T04:53:56.033Z,101371.31
2022-10-05T04:56:35.182Z,101369.16
2022-10-05T04:59:22.332Z,101366.19
2022-10-05T05:02:06.626Z,101362.56
2022-10-05T05:04:51.856Z,101358.38
2022-10-05T05:07:33.383Z,101351.72
2022-10-05T05:10:44.101Z,101350.84
2022-10-05T05:13:25.642Z,101351.97
2022-10-05T05:15:57.307Z,101354.47
2022-10-05T05:18:42.118Z,101353.53
2022-10-05T05:21:17.835Z,101358.56
2022-10-05T05:23:52.413Z,101372.03
2022-10-05T05:26:32.037Z,101365.28
2022-10-05T05:29:09.724Z,101355.69
2022-10-05T05:31:46.020Z,101342.34
2022-10-05T05:34:30.668Z,101344.19
2022-10-05T05:37:08.868Z,101340.63
2022-10-05T05:39:46.152Z,101322.13
2022-10-05T05:42:26.022Z,101328.34
2022-10-05T05:44:57.429Z,101335.19
2022-10-05T05:47:31.033Z,101330.53
2022-10-05T05:50:13.747Z,101332.34
2022-10-05T05:52:46.798Z,101336.72
2022-10-05T05:55:20.212Z,101347.91
2022-10-05T05:57:54.634Z,101341.22
2022-10-05T06:00:24.835Z,101340.97
2022-10-05T06:02:59.055Z,101341.13
2022-10-05T06:05:33.158Z,101334.47
2022-10-05T06:08:07.858Z,101328.31
2022-10-05T06:10:43.196Z,101333.72
2022-10-05T06:13:18.097Z,101339.03
2022-10-05T06:15:50.447Z,101350.66
2022-10-05T06:18:21.652Z,101331.97
2022-10-05T06:20:54.786Z,101338.16
2022-10-05T06:23:29.163Z,101340.53
2022-10-05T06:26:12.438Z,101346.91
2022-10-05T06:28:40.006Z,101353.47
2022-10-05T06:31:19.215Z,101355.16
2022-10-05T06:33:51.551Z,101354.31
2022-10-05T06:36:32.465Z,101344.06
2022-10-05T06:39:47.399Z,101355.59
2022-10-05T06:42:31.056Z,101357.25
2022-10-05T06:45:06.926Z,101357.22
2022-10-05T06:47:42.354Z,101352.88
2022-10-05T06:50:16.308Z,101357.25
2022-10-05T06:53:01.443Z,101356.09
2022-10-05T06:55:37.755Z,101362.00
2022-10-05T06:58:20.840Z,101345.22
2022-10-05T07:00:54.098Z,101348.81
2022-10-05T07:03:31.290Z,101350.59
2022-10-05T07:06:15.207Z,101354.00
2022-10-05T07:09:01.154Z,101354.81
2022-10-05T07:11:42.328Z,101358.16
2022-10-05T07:14:21.307Z,101353.06
2022-10-05T07:17:02.572Z,101358.38
2022-10-05T07:19:39.510Z,101364.34
2022-10-05T07:22:33.360Z,101357.53
2022-10-05T07:25:10.411Z,101354.13
2022-10-05T07:27:47.160Z,101356.72
2022-10-05T07:30:18.735Z,101367.06
2022-10-05T07:32:56.459Z,101354.09
2022-10-05T07:35:53.515Z,101358.41
2022-10-05T07:38:32.613Z,101347.16
2022-10-05T07:41:05.572Z,101352.38
2022-10-05T07:44:01.033Z,101368.81
2022-10-05T07:46:40.038Z,101363.59
2022-10-05T07:49:17.558Z,101373.97
2022-10-05T07:51:49.331Z,101366.22
2022-10-05T07:54:24.695Z,101353.16
2022-10-05T07:56:58.380Z,101370.47
2022-10-05T07:59:35.594Z,101369.69
2022-10-05T08:02:14.554Z,101363.50
2022-10-05T08:04:51.762Z,101372.22
2022-10-05T08:07:19.825Z,101367.94
2022-10-05T08:09:54.266Z,101363.63
2022-10-05T08:12:31.762Z,101353.22
2022-10-05T08:15:03.809Z,101335.03
2022-10-05T08:17:44.718Z,101327.16
2022-10-05T08:20:25.324Z,101333.34
2022-10-05T08:22:58.848Z,101335.88
2022-10-05T08:25:30.952Z,101330.59
2022-10-05T08:28:06.010Z,101323.22
2022-10-05T08:30:40.527Z,101312.72
2022-10-05T08:33:14.028Z,101305.63
2022-10-05T08:35:44.011Z,101308.88
2022-10-05T08:38:14.772Z,101303.00
2022-10-05T08:41:12.783Z,101301.34
2022-10-05T08:44:27.536Z,101307.69
2022-10-05T08:47:12.088Z,101308.44
2022-10-05T08:49:59.279Z,101307.03
2022-10-05T08:52:29.069Z,101295.34
2022-10-05T08:55:39.261Z,101309.53
2022-10-05T08:58:26.837Z,101278.75
2022-10-05T09:01:02.615Z,101289.69
2022-10-05T09:04:01.728Z,101285.66
2022-10-05T09:06:51.635Z,101285.78
2022-10-05T09:09:47.176Z,101280.41
2022-10-05T09:12:40.765Z,101288.69
2022-10-05T09:15:29.918Z,101293.88
2022-10-05T09:18:37.054Z,101297.25
2022-10-05T09:21:12.144Z,101295.03
2022-10-05T09:23:44.085Z,101294.72
2022-10-05T09:26:42.800Z,101278.63
2022-10-05T09:29:36.242Z,101275.88
2022-10-05T09:32:27.769Z,101282.28
2022-10-05T09:35:14.533Z,101274.63
2022-10-05T09:38:05.253Z,101277.75
2022-10-05T09:41:08.865Z,101270.63
2022-10-05T09:44:06.051Z,101265.22
2022-10-05T09:46:52.429Z,101270.59
2022-10-05T09:49:44.507Z,101275.56
2022-10-05T09:52:50.253Z,101261.56
2022-10-05T09:55:45.038Z,101252.09
2022-10-05T09:58:46.113Z,101252.00
2022-10-05T10:01:34.364Z,101253.44
2022-10-05T10:04:15.360Z,101245.88
2022-10-05T10:07:06.342Z,101247.50
2022-10-05T10:09:46.678Z,101247.97
2022-10-05T10:12:35.774Z,101243.50
2022-10-05T10:15:41.254Z,101241.56
2022-10-05T10:18:29.135Z,101237.56
2022-10-05T10:21:13.939Z,101239.78
2022-10-05T10:24:09.001Z,101237.75
2022-10-05T10:26:56.005Z,101254.06
2022-10-05T10:29:45.831Z,101261.41
2022-10-05T10:32:36.317Z,101268.16
2022-10-05T10:35:31.295Z,101268.63
2022-10-05T10:38:24.440Z,101268.28
2022-10-05T10:41:10.618Z,101269.13
2022-10-05T10:43:59.414Z,101267.56
2022-10-05T10:46:40.247Z,101264.66
2022-10-05T10:49:21.947Z,101260.81
2022-10-05T10:52:18.315Z,101260.47
2022-10-05T10:55:28.020Z,101258.69
2022-10-05T11:01:20.739Z,101254.63
2022-10-05T11:04:06.692Z,101246.53
2022-10-05T11:06:46.984Z,101250.03
2022-10-05T11:09:49.791Z,101246.25
2022-10-05T11:12:57.995Z,101242.56
2022-10-05T11:15:45.863Z,101237.88
2022-10-05T11:18:20.585Z,101230.66
2022-10-05T11:21:30.302Z,101225.84
2022-10-05T11:24:44.609Z,101218.22
2022-10-05T11:27:24.525Z,101218.06
2022-10-05T11:30:20.778Z,101209.63
2022-10-05T11:33:11.313Z,101205.06
2022-10-05T11:35:54.050Z,101210.28
2022-10-05T11:38:46.050Z,101204.81
2022-10-05T11:41:42.383Z,101210.44
2022-10-05T11:44:36.462Z,101205.53
2022-10-05T11:47:14.807Z,101189.53
2022-10-05T11:49:48.406Z,101194.84
2022-10-05T11:52:21.846Z,101194.31
2022-10-05T11:55:15.399Z,101190.34
2022-10-05T11:57:51.202Z,101192.38
2022-10-05T12:00:21.058Z,101186.03
2022-10-05T12:03:23.751Z,101185.53
2022-10-05T12:06:03.631Z,101185.31
2022-10-05T12:08:41.672Z,101180.94
2022-10-05T12:11:32.788Z,101178.03
2022-10-05T12:14:06.408Z,101170.22
2022-10-05T12:16:41.546Z,101165.56
2022-10-05T12:19:16.369Z,101161.72
2022-10-05T12:21:50.389Z,101158.25
2022-10-05T12:24:27.058Z,101163.34
2022-10-05T12:27:02.979Z,101163.50
2022-10-05T12:29:40.540Z,101159.59
2022-10-05T12:32:14.360Z,101154.75
2022-10-05T12:34:51.578Z,101141.03
2022-10-05T12:37:39.578Z,101141.31
2022-10-05T12:40:19.141Z,101138.81
2022-10-05T12:42:55.538Z,101137.88
2022-10-05T12:45:34.296Z,101130.00
2022-10-05T12:48:18.896Z,101133.34
2022-10-05T12:50:50.366Z,101131.97
2022-10-05T12:53:29.661Z,101129.53
2022-10-05T12:56:04.905Z,101130.59
2022-10-05T12:58:41.019Z,101128.88
2022-10-05T13:01:20.616Z,101137.22
2022-10-05T13:03:55.845Z,101138.13
2022-10-05T13:06:30.701Z,101129.75
2022-10-05T13:09:03.194Z,101133.03
2022-10-05T13:11:36.913Z,101125.13
2022-10-05T13:14:17.224Z,101128.81
2022-10-05T13:16:54.745Z,101121.38
2022-10-05T13:19:35.409Z,101132.44
2022-10-05T13:22:18.960Z,101126.72
2022-10-05T13:24:59.424Z,101119.19
2022-10-05T13:27:31.750Z,101115.03
2022-10-05T13:30:03.606Z,101113.38
2022-10-05T13:32:36.046Z,101116.69
2022-10-05T13:35:21.878Z,101108.38
2022-10-05T13:38:01.673Z,101102.53
2022-10-05T13:40:36.484Z,101110.66
2022-10-05T13:43:12.489Z,101108.06
2022-10-05T13:45:45.831Z,101104.03
2022-10-05T13:48:27.687Z,101108.75
2022-10-05T13:51:03.803Z,101104.44
2022-10-05T13:53:41.294Z,101097.13
2022-10-05T13:56:18.527Z,101093.59
2022-10-05T13:58:48.798Z,101088.13
2022-10-05T14:01:19.601Z,101088.22
2022-10-05T14:04:07.538Z,101094.75
2022-10-05T14:06:38.003Z,101092.84
2022-10-05T14:09:05.468Z,101085.16
2022-10-05T14:11:34.832Z,101087.38
2022-10-05T14:14:13.526Z,101083.44
2022-10-05T14:16:49.570Z,101087.75
2022-10-05T14:19:26.838Z,101092.78
2022-10-05T14:21:59.618Z,101093.06
2022-10-05T14:24:45.879Z,101082.16
2022-10-05T14:27:21.864Z,101085.31
2022-10-05T14:29:57.728Z,101079.81
2022-10-05T14:32:27.149Z,101080.06
2022-10-05T14:35:14.163Z,101072.38
2022-10-05T14:37:53.527Z,101073.19
2022-10-05T14:40:32.592Z,101074.25
2022-10-05T14:43:03.150Z,101070.63
2022-10-05T14:45:33.469Z,101054.69
2022-10-05T14:48:12.573Z,101053.47
2022-10-05T14:50:57.205Z,101041.50
2022-10-05T14:53:27.423Z,101044.97
2022-10-05T14:56:18.687Z,101041.03
2022-10-05T14:59:23.558Z,101036.97
2022-10-05T15:01:57.954Z,101041.63
2022-10-05T15:04:37.827Z,101045.25
2022-10-05T15:07:19.686Z,101050.63
2022-10-05T15:10:32.448Z,101054.50
2022-10-05T15:13:11.489Z,101040.81
2022-10-05T15:15:49.041Z,101048.94
2022-10-05T15:18:31.659Z,101052.72
2022-10-05T15:21:10.285Z,101036.72
2022-10-05T15:23:47.555Z,101042.88
2022-10-05T15:26:32.313Z,101045.56
2022-10-05T15:29:08.060Z,101046.13
2022-10-05T15:31:41.963Z,101052.50
2022-10-05T15:34:17.844Z,101040.50
2022-10-05T15:36:54.316Z,101039.50
2022-10-05T15:39:34.952Z,101037.63
2022-10-05T15:42:07.006Z,101038.28
2022-10-05T15:44:49.973Z,101043.28
2022-10-05T15:47:23.834Z,101046.56
2022-10-05T15:50:02.315Z,101047.25
2022-10-05T15:52:38.813Z,101044.72
2022-10-05T15:55:26.707Z,101045.84
2022-10-05T15:58:05.030Z,101042.47
2022-10-05T16:00:38.165Z,101044.44
2022-10-05T16:03:17.934Z,101046.66
2022-10-05T16:06:27.263Z,101058.63
2022-10-05T16:09:13.513Z,101048.38
2022-10-05T16:12:05.297Z,101048.81
2022-10-05T16:14:49.505Z,101044.78
2022-10-05T16:17:33.992Z,101046.31
2022-10-05T16:20:22.102Z,101038.34
2022-10-05T16:23:04.561Z,101038.84
2022-10-05T16:25:45.397Z,101033.97
2022-10-05T16:28:29.133Z,101038.81
2022-10-05T16:31:03.234Z,101042.88
2022-10-05T16:33:46.065Z,101039.69
2022-10-05T16:36:25.358Z,101034.38
2022-10-05T16:39:02.004Z,101034.06
2022-10-05T16:41:34.948Z,101031.44
2022-10-05T16:44:15.332Z,101033.16
2022-10-05T16:46:51.029Z,101036.94
2022-10-05T16:49:32.647Z,101032.75
2022-10-05T16:52:01.969Z,101032.50
2022-10-05T16:54:33.534Z,101036.22
2022-10-05T16:57:06.874Z,101031.63
2022-10-05T16:59:56.766Z,101040.13
2022-10-05T17:02:46.111Z,101040.19
2022-10-05T17:05:27.080Z,101040.47
2022-10-05T17:08:13.855Z,101044.56
2022-10-05T17:10:55.741Z,101047.09
2022-10-05T17:13:40.102Z,101046.34
2022-10-05T17:16:20.110Z,101043.06
2022-10-05T17:19:26.819Z,101042.28
2022-10-05T17:22:00.423Z,101044.50
2022-10-05T17:24:49.514Z,101046.56
2022-10-05T17:27:22.071Z,101048.69
2022-10-05T17:29:52.420Z,101048.56
2022-10-05T17:32:56.909Z,101051.22
2022-10-05T17:35:53.202Z,101058.34
2022-10-05T17:38:23.234Z,101054.88
2022-10-05T17:41:19.804Z,101052.22
2022-10-05T17:44:20.126Z,101047.13
2022-10-05T17:46:49.124Z,101051.78
2022-10-05T17:50:09.736Z,101057.81
2022-10-05T17:52:58.788Z,101052.56
2022-10-05T17:55:45.210Z,101052.78
2022-10-05T17:59:01.630Z,101049.31
2022-10-05T18:01:32.032Z,101048.81
2022-10-05T18:04:48.708Z,101047.78
2022-10-05T18:07:22.917Z,101043.50
2022-10-05T18:10:20.276Z,101036.47
2022-10-05T18:12:49.896Z,101045.28
2022-10-05T18:15:44.024Z,101041.50
2022-10-05T18:18:34.711Z,101036.47
2022-10-05T18:21:35.694Z,101036.94
2022-10-05T18:24:36.386Z,101036.72
2022-10-05T18:27:34.285Z,101039.13
2022-10-05T18:30:17.020Z,101037.53
2022-10-05T18:33:29.773Z,101034.91
2022-10-05T18:36:06.679Z,101034.91
2022-10-05T18:38:45.384Z,101033.06
2022-10-05T18:41:23.487Z,101037.56
2022-10-05T18:44:01.474Z,101033.31
2022-10-05T18:46:39.447Z,101040.25
2022-10-05T18:49:22.454Z,101036.72
2022-10-05T18:51:53.438Z,101029.69
2022-10-05T18:54:37.256Z,101043.63
2022-10-05T18:57:45.314Z,101043.69
2022-10-05T19:00:16.867Z,101034.34
2022-10-05T19:02:48.266Z,101037.53
2022-10-05T19:05:46.973Z,101036.53
2022-10-05T19:08:23.959Z,101042.78
2022-10-05T19:10:56.093Z,101036.09
2022-10-05T19:13:38.591Z,101042.41
2022-10-05T19:16:28.144Z,101048.41
2022-10-05T19:19:09.324Z,101049.69
2022-10-05T19:21:47.518Z,101054.06
2022-10-05T19:24:41.743Z,101056.56
2022-10-05T19:27:17.809Z,101057.19
2022-10-05T19:30:13.538Z,101067.59
2022-10-05T19:32:52.976Z,101068.13
2022-10-05T19:35:28.742Z,101076.84
2022-10-05T19:38:15.389Z,101077.69
2022-10-05T19:40:53.155Z,101082.28
2022-10-05T19:43:50.573Z,101088.06
2022-10-05T19:46:30.821Z,101089.84
2022-10-05T19:49:00.179Z,101093.81
2022-10-05T19:51:30.559Z,101098.16
2022-10-05T19:54:01.154Z,101098.69
2022-10-05T19:56:33.453Z,101098.53
2022-10-05T19:59:13.160Z,101108.44
2022-10-05T20:01:50.442Z,101106.94
2022-10-05T20:04:32.608Z,101108.94
2022-10-05T20:07:00.421Z,101116.84
2022-10-05T20:09:27.910Z,101111.75
2022-10-05T20:11:56.478Z,101116.78
2022-10-05T20:14:30.843Z,101121.06
2022-10-05T20:17:33.906Z,101125.81
2022-10-05T20:20:23.819Z,101126.84
2022-10-05T20:22:51.256Z,101133.31
2022-10-05T20:25:37.971Z,101138.03
2022-10-05T20:28:06.615Z,101147.84
2022-10-05T20:30:34.155Z,101155.13
2022-10-05T20:33:04.608Z,101153.50
2022-10-05T20:35:32.187Z,101160.81
2022-10-05T20:38:00.192Z,101151.78
2022-10-05T20:40:29.053Z,101154.50
2022-10-05T20:42:57.000Z,101153.03
2022-10-05T20:45:24.844Z,101159.75
2022-10-05T20:47:52.299Z,101162.34
2022-10-05T20:50:22.209Z,101161.00
2022-10-05T20:52:50.364Z,101162.44
2022-10-05T20:55:18.222Z,101167.78
2022-10-05T20:57:46.162Z,101175.88
2022-10-05T21:00:14.670Z,101174.56
2022-10-05T21:02:42.324Z,101175.13
2022-10-05T21:05:11.385Z,101176.44
2022-10-05T21:07:40.921Z,101183.31
2022-10-05T21:10:14.116Z,101173.72
2022-10-05T21:12:42.074Z,101185.28
2022-10-05T21:15:11.507Z,101183.44
2022-10-05T21:17:39.078Z,101184.25
2022-10-05T21:20:07.361Z,101178.19
2022-10-05T21:22:36.367Z,101194.03
2022-10-05T21:25:08.807Z,101189.50
2022-10-05T21:27:36.260Z,101191.22
2022-10-05T21:30:03.818Z,101186.13
2022-10-05T21:32:31.234Z,101191.19
2022-10-05T21:34:58.900Z,101194.19
2022-10-05T21:37:26.370Z,101189.69
2022-10-05T21:39:53.781Z,101194.50
2022-10-05T21:42:23.579Z,101198.25
2022-10-05T21:44:51.125Z,101195.59
2022-10-05T21:47:18.552Z,101199.97
2022-10-05T21:49:46.000Z,101205.13
2022-10-05T21:52:14.094Z,101204.38
2022-10-05T21:54:41.590Z,101204.16
2022-10-05T21:57:15.338Z,101205.91
2022-10-05T21:59:44.696Z,101210.28
2022-10-05T22:02:12.162Z,101218.63
2022-10-05T22:04:39.627Z,101208.63
2022-10-05T22:07:14.580Z,101203.00
2022-10-05T22:09:41.974Z,101211.13
2022-10-05T22:12:09.402Z,101209.59
2022-10-05T22:14:36.830Z,101219.44
2022-10-05T22:17:05.988Z,101206.38
2022-10-05T22:19:33.584Z,101215.19
2022-10-05T22:22:00.974Z,101205.28
2022-10-05T22:24:28.366Z,101214.28
2022-10-05T22:26:55.846Z,101217.97
2022-10-05T22:29:24.043Z,101217.75
2022-10-05T22:31:56.139Z,101214.97
2022-10-05T22:34:25.090Z,101219.38
2022-10-05T22:36:52.789Z,101221.53
2022-10-05T22:39:20.194Z,101216.06
2022-10-05T22:41:47.824Z,101213.25
2022-10-05T22:44:15.250Z,101219.22
2022-10-05T22:46:42.699Z,101218.97
2022-10-05T22:49:10.207Z,101220.56
2022-10-05T22:51:38.970Z,101219.09
2022-10-05T22:54:06.961Z,101230.09
2022-10-05T22:56:35.070Z,101225.44
2022-10-05T22:59:02.510Z,101221.38
2022-10-05T23:01:30.038Z,101241.44
2022-10-05T23:03:57.745Z,101244.44
2022-10-05T23:06:26.483Z,101245.44
2022-10-05T23:08:55.686Z,101238.25
2022-10-05T23:11:25.901Z,101244.63
2022-10-05T23:13:55.657Z,101254.03
2022-10-05T23:16:24.705Z,101251.06
2022-10-05T23:18:53.958Z,101245.69
2022-10-05T23:21:23.966Z,101252.00
2022-10-05T23:23:51.847Z,101254.09
2022-10-05T23:26:23.114Z,101250.38
2022-10-05T23:28:50.575Z,101258.34
2022-10-05T23:31:19.508Z,101268.75
2022-10-05T23:33:47.200Z,101265.41
2022-10-05T23:36:17.121Z,101262.38
2022-10-05T23:38:45.264Z,101271.56
2022-10-05T23:41:12.762Z,101275.66
2022-10-05T23:43:41.518Z,101270.88
2022-10-05T23:46:10.321Z,101274.38
2022-10-05T23:48:38.873Z,101280.91
2022-10-05T23:51:07.280Z,101281.16
2022-10-05T23:53:35.003Z,101293.34
2022-10-05T23:56:02.775Z,101282.44
2022-10-05T23:58:30.568Z,101287.94
